Saturday, November 18, 2017, 4:32 PM EST
Back to Local

K40B, Clayton Lake

Location: Ashland, ME, United States Lat: 46.617
Local Time: 4:32 PM EST (21:32 GMT) Lon: -69.533
Time Zone: US/Eastern Elev: 1030 ft

Show me the last for .
Show Decoded

2017-11-18 16:16 METAR K40B 182116Z AUTO 00000KT M03/M07 A2966 RMK AO1 SLP073 T10271066 58025 =
2017-11-18 15:16 METAR K40B 182016Z AUTO VRB04KT M02/M07 A2970 RMK AO1 SLP086 T10251067 58019 =
2017-11-18 14:16 METAR K40B 181916Z AUTO 00000KT M02/M07 A2972 RMK AO1 SLP093 T10211071 58020 =
2017-11-18 13:16 METAR K40B 181816Z AUTO 00000KT M02/M07 A2974 RMK AO1 SLP102 T10171068 11017
                 21097 58023 =
2017-11-18 12:16 METAR K40B 181716Z AUTO 00000KT M03/M09 A2976 RMK AO1 SLP109 T10331086 56030 =
2017-11-18 11:16 METAR K40B 181616Z AUTO 00000KT M04/M09 A2978 RMK AO1 SLP117 T10441087 58023 =
2017-11-18 10:16 METAR K40B 181516Z AUTO VRB03KT M05/M10 A2981 RMK AO1 SLP128 T10541096 58011 =
2017-11-18 09:16 METAR K40B 181416Z AUTO VRB03KT M06/M10 A2985 RMK AO1 SLP141 T10561095 50004 =
2017-11-18 08:16 METAR K40B 181316Z AUTO 00000KT M08/M11 A2985 RMK AO1 SLP142 T10841108 52007 =
2017-11-18 07:16 METAR K40B 181216Z AUTO VRB04KT M10/M11 A2985 RMK AO1 SLP140 T10961114 11085
                 21108 53004 =
2017-11-18 06:16 METAR K40B 181116Z AUTO VRB04KT M10/M12 A2984 RMK AO1 SLP136 T11011118 51010 =
2017-11-18 05:16 METAR K40B 181016Z AUTO VRB02KT M10/M12 A2983 RMK AO1 SLP132 T11051119 50009 =
2017-11-18 04:16 METAR K40B 180916Z AUTO VRB04G12KT M10/M11 A2984 RMK AO1 SLP134 T10961114 53010
                 =
2017-11-18 03:16 METAR K40B 180816Z AUTO VRB04G12KT M09/M11 A2981 RMK AO1 SLP123 T10931110 54001
                 =
2017-11-18 02:16 METAR K40B 180716Z AUTO VRB04G13KT M09/M11 A2980 RMK AO1 SLP121 T10891107 56007
                 =
2017-11-18 01:16 METAR K40B 180616Z AUTO VRB05G12KT M09/M10 A2980 RMK AO1 SLP121 T10851104 11060
                 21085 58004 =
2017-11-18 00:16 METAR K40B 180516Z AUTO VRB04G10KT M08/M10 A2981 RMK AO1 SLP122 T10791102
                 400101079 50001 =
2017-11-17 23:16 METAR K40B 180416Z AUTO VRB04G14KT M08/M10 A2982 RMK AO1 SLP125 T10751099 55001
                 =
2017-11-17 22:16 METAR K40B 180316Z AUTO VRB04G11KT M07/M10 A2982 RMK AO1 SLP123 T10711098 50008
                 =
2017-11-17 21:16 METAR K40B 180216Z AUTO VRB02G11KT M07/M10 A2981 RMK AO1 SLP119 T10671096 50020
                 =
2017-11-17 20:16 METAR K40B 180116Z AUTO 25006G16KT 200V280 M06/M09 A2982 RMK AO1 SLP122
                 T10631093 53020 =
2017-11-17 19:16 METAR K40B 180016Z AUTO VRB04G15KT M06/M09 A2980 RMK AO1 SLP112 T10601091 11017
                 21060 53017 =
2017-11-17 18:16 METAR K40B 172316Z AUTO 26006G18KT 150V360 M06/M09 A2976 RMK AO1 SLP100
                 T10551088 51013 =
2017-11-17 17:16 METAR K40B 172216Z AUTO VRB04G12KT M05/M08 A2976 RMK AO1 SLP099 T10511084 51021
                 =

Support USWX by starting your Amazon purchase here.